createdAt,value
2022-12-27T00:02:04.571Z,99.90
2022-12-27T00:04:50.452Z,99.90
2022-12-27T00:07:37.199Z,99.90
2022-12-27T00:10:22.992Z,99.90
2022-12-27T00:13:08.888Z,99.90
2022-12-27T00:15:55.080Z,99.90
2022-12-27T00:18:41.238Z,99.90
2022-12-27T00:21:28.594Z,99.90
2022-12-27T00:24:14.765Z,99.90
2022-12-27T00:27:00.882Z,99.90
2022-12-27T00:29:46.705Z,99.90
2022-12-27T00:32:32.819Z,99.90
2022-12-27T00:35:18.768Z,99.90
2022-12-27T00:38:06.800Z,99.90
2022-12-27T00:40:54.934Z,99.90
2022-12-27T00:43:40.959Z,99.90
2022-12-27T00:46:26.803Z,99.90
2022-12-27T00:49:12.641Z,99.90
2022-12-27T00:51:58.671Z,99.90
2022-12-27T00:54:44.873Z,99.90
2022-12-27T00:57:30.934Z,99.90
2022-12-27T01:00:17.173Z,99.90
2022-12-27T01:03:03.550Z,99.90
2022-12-27T01:05:49.493Z,99.90
2022-12-27T01:08:35.908Z,99.80
2022-12-27T01:11:22.243Z,99.60
2022-12-27T01:14:07.876Z,99.50
2022-12-27T01:16:53.885Z,99.60
2022-12-27T01:19:39.914Z,99.60
2022-12-27T01:22:25.662Z,99.50
2022-12-27T01:25:11.482Z,99.40
2022-12-27T01:27:57.304Z,99.10
2022-12-27T01:30:43.423Z,99.30
2022-12-27T01:33:29.528Z,99.10
2022-12-27T01:36:19.901Z,99.10
2022-12-27T01:39:05.817Z,99.10
2022-12-27T01:42:10.293Z,99.30
2022-12-27T01:44:57.451Z,99.10
2022-12-27T01:47:43.427Z,99.10
2022-12-27T01:50:55.763Z,99.20
2022-12-27T01:53:44.157Z,98.90
2022-12-27T01:56:30.926Z,99.20
2022-12-27T01:59:17.313Z,98.70
2022-12-27T02:02:03.284Z,98.90
2022-12-27T02:04:49.816Z,98.70
2022-12-27T02:07:40.544Z,98.50
2022-12-27T02:10:27.948Z,98.60
2022-12-27T02:13:14.087Z,98.50
2022-12-27T02:15:59.927Z,97.90
2022-12-27T02:18:46.419Z,98.10
2022-12-27T02:21:42.712Z,98.30
2022-12-27T02:24:41.206Z,98.10
2022-12-27T02:27:42.678Z,98.30
2022-12-27T02:30:31.267Z,98.50
2022-12-27T02:33:20.818Z,98.40
2022-12-27T02:36:09.217Z,98.40
2022-12-27T02:38:56.873Z,98.30
2022-12-27T02:42:01.722Z,98.20
2022-12-27T02:45:06.274Z,98.30
2022-12-27T02:48:10.802Z,98.20
2022-12-27T02:51:34.180Z,98.00
2022-12-27T02:54:51.764Z,97.70
2022-12-27T02:57:42.359Z,97.80
2022-12-27T03:00:47.186Z,97.80
2022-12-27T03:03:39.636Z,98.00
2022-12-27T03:06:40.653Z,97.90
2022-12-27T03:10:04.537Z,98.00
2022-12-27T03:13:27.033Z,98.00
2022-12-27T03:16:16.249Z,98.10
2022-12-27T03:19:09.332Z,97.90
2022-12-27T03:22:24.736Z,97.90
2022-12-27T03:25:29.943Z,97.80
2022-12-27T03:28:38.616Z,97.60
2022-12-27T03:31:46.048Z,97.30
2022-12-27T03:34:38.342Z,97.30
2022-12-27T03:37:47.680Z,97.40
2022-12-27T03:40:38.919Z,97.30
2022-12-27T03:43:24.923Z,97.20
2022-12-27T03:46:34.094Z,96.80
2022-12-27T03:49:46.819Z,97.00
2022-12-27T03:52:42.477Z,96.80
2022-12-27T03:55:33.122Z,96.80
2022-12-27T03:58:20.001Z,96.90
2022-12-27T04:01:06.067Z,97.00
2022-12-27T04:03:52.431Z,96.40
2022-12-27T04:06:38.295Z,96.60
2022-12-27T04:09:43.026Z,96.30
2022-12-27T04:12:47.413Z,96.30
2022-12-27T04:15:51.794Z,96.50
2022-12-27T04:18:56.242Z,96.30
2022-12-27T04:22:00.679Z,96.60
2022-12-27T04:25:04.977Z,96.90
2022-12-27T04:28:09.343Z,96.90
2022-12-27T04:31:13.725Z,96.70
2022-12-27T04:34:18.339Z,97.00
2022-12-27T04:37:04.164Z,97.00
2022-12-27T04:40:10.063Z,97.10
2022-12-27T04:43:14.581Z,97.50
2022-12-27T04:46:19.119Z,97.50
2022-12-27T04:49:23.498Z,97.70
2022-12-27T04:52:34.978Z,97.60
2022-12-27T04:55:25.277Z,97.60
2022-12-27T04:58:11.483Z,97.60
2022-12-27T05:01:17.832Z,97.80
2022-12-27T05:04:04.538Z,97.30
2022-12-27T05:06:50.813Z,96.70
2022-12-27T05:09:55.593Z,96.80
2022-12-27T05:12:59.994Z,96.90
2022-12-27T05:15:45.691Z,97.00
2022-12-27T05:18:31.575Z,96.60
2022-12-27T05:21:17.485Z,96.30
2022-12-27T05:24:22.771Z,96.20
2022-12-27T05:27:08.459Z,96.00
2022-12-27T05:29:54.407Z,95.80
2022-12-27T05:32:40.561Z,96.00
2022-12-27T05:35:26.958Z,95.50
2022-12-27T05:38:12.719Z,95.70
2022-12-27T05:41:02.465Z,95.50
2022-12-27T05:43:48.622Z,95.60
2022-12-27T05:46:35.484Z,95.40
2022-12-27T05:49:21.908Z,95.60
2022-12-27T05:52:08.334Z,95.40
2022-12-27T05:54:54.297Z,95.10
2022-12-27T05:57:40.296Z,95.40
2022-12-27T06:00:26.330Z,95.50
2022-12-27T06:03:12.372Z,95.50
2022-12-27T06:06:02.115Z,95.40
2022-12-27T06:08:48.051Z,95.60
2022-12-27T06:11:34.227Z,95.10
2022-12-27T06:14:20.105Z,95.30
2022-12-27T06:17:06.076Z,95.20
2022-12-27T06:19:56.838Z,95.20
2022-12-27T06:22:43.178Z,95.20
2022-12-27T06:25:29.038Z,95.60
2022-12-27T06:28:15.059Z,95.50
2022-12-27T06:31:01.176Z,95.50
2022-12-27T06:33:47.382Z,95.30
2022-12-27T06:36:33.353Z,95.70
2022-12-27T06:39:19.781Z,95.50
2022-12-27T06:42:06.061Z,95.60
2022-12-27T06:44:51.927Z,95.80
2022-12-27T06:47:38.077Z,96.10
2022-12-27T06:50:24.206Z,96.10
2022-12-27T06:53:10.113Z,96.20
2022-12-27T06:55:56.237Z,96.10
2022-12-27T06:58:42.261Z,96.40
2022-12-27T07:01:28.429Z,96.60
2022-12-27T07:04:14.525Z,96.80
2022-12-27T07:07:00.423Z,97.20
2022-12-27T07:09:46.426Z,97.20
2022-12-27T07:12:36.665Z,97.10
2022-12-27T07:15:23.306Z,97.40
2022-12-27T07:18:09.392Z,97.30
2022-12-27T07:20:55.575Z,97.60
2022-12-27T07:23:41.728Z,97.30
2022-12-27T07:26:30.372Z,97.40
2022-12-27T07:29:16.884Z,96.90
2022-12-27T07:32:02.737Z,96.90
2022-12-27T07:34:48.739Z,97.10
2022-12-27T07:37:34.904Z,97.50
2022-12-27T07:40:22.420Z,97.80
2022-12-27T07:43:08.409Z,97.90
2022-12-27T07:45:54.543Z,98.40
2022-12-27T07:48:41.028Z,98.60
2022-12-27T07:51:28.876Z,98.60
2022-12-27T07:54:14.761Z,98.60
2022-12-27T07:57:00.579Z,97.00
2022-12-27T07:59:46.813Z,96.00
2022-12-27T08:02:32.861Z,94.40
2022-12-27T08:05:24.385Z,93.60
2022-12-27T08:08:14.820Z,92.60
2022-12-27T08:11:05.535Z,92.10
2022-12-27T08:13:52.509Z,91.40
2022-12-27T08:16:38.909Z,90.60
2022-12-27T08:19:24.890Z,90.30
2022-12-27T08:22:11.335Z,90.40
2022-12-27T08:24:57.491Z,90.20
2022-12-27T08:27:43.459Z,89.70
2022-12-27T08:30:29.642Z,90.40
2022-12-27T08:33:15.663Z,89.30
2022-12-27T08:36:53.012Z,88.70
2022-12-27T08:39:15.056Z,89.90
2022-12-27T08:42:01.365Z,90.00
2022-12-27T08:44:47.525Z,90.50
2022-12-27T08:47:33.511Z,90.80
2022-12-27T08:50:19.488Z,91.60
2022-12-27T08:53:06.086Z,91.20
2022-12-27T08:55:51.957Z,91.80
2022-12-27T08:58:37.920Z,92.30
2022-12-27T09:01:25.504Z,93.00
2022-12-27T09:04:11.533Z,93.60
2022-12-27T09:06:57.470Z,94.10
2022-12-27T09:09:43.556Z,94.40
2022-12-27T09:12:29.409Z,94.70
2022-12-27T09:15:15.771Z,95.00
2022-12-27T09:18:03.172Z,94.80
2022-12-27T09:20:48.820Z,95.00
2022-12-27T09:23:35.566Z,95.40
2022-12-27T09:26:22.649Z,95.40
2022-12-27T09:29:08.954Z,95.60
2022-12-27T09:31:55.091Z,95.40
2022-12-27T09:34:41.285Z,95.80
2022-12-27T09:37:27.205Z,94.70
2022-12-27T09:40:14.869Z,95.00
2022-12-27T09:43:18.147Z,94.10
2022-12-27T09:46:11.127Z,94.10
2022-12-27T09:48:57.554Z,93.50
2022-12-27T09:51:49.995Z,93.90
2022-12-27T09:55:02.499Z,92.90
2022-12-27T09:57:50.915Z,90.60
2022-12-27T10:00:38.904Z,89.90
2022-12-27T10:03:28.104Z,85.90
2022-12-27T10:06:20.293Z,86.00
2022-12-27T10:09:09.511Z,81.30
2022-12-27T10:12:01.819Z,80.80
2022-12-27T10:15:07.399Z,79.00
2022-12-27T10:18:11.942Z,76.50
2022-12-27T10:21:10.263Z,73.20
2022-12-27T10:24:15.198Z,71.40
2022-12-27T10:27:01.047Z,70.20
2022-12-27T10:29:48.275Z,69.30
2022-12-27T10:32:34.091Z,69.30
2022-12-27T10:35:20.950Z,71.40
2022-12-27T10:38:10.301Z,70.30
2022-12-27T10:41:05.121Z,69.60
2022-12-27T10:43:51.961Z,68.60
2022-12-27T10:46:38.613Z,65.30
2022-12-27T10:49:28.974Z,61.50
2022-12-27T10:52:19.637Z,63.90
2022-12-27T10:55:05.828Z,60.90
2022-12-27T10:57:51.671Z,62.00
2022-12-27T11:00:37.873Z,57.70
2022-12-27T11:03:26.178Z,56.90
2022-12-27T11:06:20.454Z,55.80
2022-12-27T11:09:18.879Z,55.90
2022-12-27T11:12:10.921Z,55.60
2022-12-27T11:15:01.546Z,55.80
2022-12-27T11:17:49.230Z,55.30
2022-12-27T11:20:39.914Z,55.50
2022-12-27T11:23:29.087Z,55.70
2022-12-27T11:26:23.057Z,56.90
2022-12-27T11:29:15.820Z,59.90
2022-12-27T11:32:06.684Z,57.40
2022-12-27T11:34:54.523Z,58.00
2022-12-27T11:37:40.589Z,57.80
2022-12-27T11:40:34.504Z,56.50
2022-12-27T11:43:22.632Z,55.10
2022-12-27T11:46:13.764Z,53.90
2022-12-27T11:49:01.360Z,51.40
2022-12-27T11:52:03.501Z,54.00
2022-12-27T11:54:58.536Z,50.80
2022-12-27T11:58:07.771Z,48.50
2022-12-27T12:01:03.600Z,50.10
2022-12-27T12:04:06.574Z,50.00
2022-12-27T12:06:52.605Z,48.90
2022-12-27T12:09:39.293Z,52.80
2022-12-27T12:12:44.289Z,53.20
2022-12-27T12:15:36.753Z,54.90
2022-12-27T12:18:27.756Z,53.70
2022-12-27T12:21:27.304Z,58.10
2022-12-27T12:24:16.190Z,61.80
2022-12-27T12:27:22.180Z,59.80
2022-12-27T12:30:27.635Z,59.40
2022-12-27T12:33:14.058Z,59.30
2022-12-27T12:36:12.240Z,59.10
2022-12-27T12:38:58.387Z,59.30
2022-12-27T12:42:03.006Z,59.90
2022-12-27T12:44:49.151Z,60.40
2022-12-27T12:47:35.136Z,60.20
2022-12-27T12:50:27.204Z,62.40
2022-12-27T12:53:32.099Z,61.60
2022-12-27T12:56:32.267Z,60.40
2022-12-27T12:59:30.111Z,57.30
2022-12-27T13:02:25.290Z,58.40
2022-12-27T13:05:29.943Z,58.60
2022-12-27T13:08:36.365Z,57.20
2022-12-27T13:11:22.375Z,57.30
2022-12-27T13:14:14.442Z,57.80
2022-12-27T13:17:10.902Z,58.00
2022-12-27T13:20:15.278Z,57.50
2022-12-27T13:23:01.173Z,57.40
2022-12-27T13:26:05.508Z,57.70
2022-12-27T13:28:58.663Z,57.60
2022-12-27T13:31:50.915Z,58.00
2022-12-27T13:34:36.778Z,57.10
2022-12-27T13:37:41.508Z,56.80
2022-12-27T13:40:34.148Z,55.10
2022-12-27T13:43:23.094Z,55.30
2022-12-27T13:46:16.733Z,56.40
2022-12-27T13:49:11.866Z,57.50
2022-12-27T13:52:20.933Z,56.60
2022-12-27T13:55:23.957Z,58.10
2022-12-27T13:58:25.061Z,61.00
2022-12-27T14:01:36.921Z,61.20
2022-12-27T14:04:23.029Z,63.80
2022-12-27T14:07:27.826Z,64.60
2022-12-27T14:10:31.262Z,66.30
2022-12-27T14:13:29.286Z,66.50
2022-12-27T14:16:15.919Z,66.20
2022-12-27T14:19:02.964Z,66.60
2022-12-27T14:22:03.647Z,65.40
2022-12-27T14:24:55.522Z,67.20
2022-12-27T14:27:59.814Z,65.60
2022-12-27T14:30:52.032Z,66.30
2022-12-27T14:33:37.997Z,67.60
2022-12-27T14:36:30.287Z,69.60
2022-12-27T14:39:35.046Z,70.60
2022-12-27T14:42:30.203Z,72.50
2022-12-27T14:45:35.093Z,73.10
2022-12-27T14:48:27.267Z,71.10
2022-12-27T14:51:58.825Z,72.20
2022-12-27T14:54:47.068Z,73.20
2022-12-27T14:57:48.074Z,75.40
2022-12-27T15:01:06.836Z,74.80
2022-12-27T15:04:19.345Z,75.40
2022-12-27T15:07:25.217Z,76.50
2022-12-27T15:10:14.684Z,77.60
2022-12-27T15:13:12.255Z,77.90
2022-12-27T15:15:58.365Z,77.70
2022-12-27T15:18:54.413Z,79.50
2022-12-27T15:21:41.941Z,79.80
2022-12-27T15:24:28.287Z,78.40
2022-12-27T15:27:19.907Z,79.00
2022-12-27T15:30:21.985Z,78.90
2022-12-27T15:33:11.166Z,79.80
2022-12-27T15:36:06.580Z,80.10
2022-12-27T15:38:54.721Z,80.60
2022-12-27T15:42:10.861Z,81.50
2022-12-27T15:45:05.222Z,82.00
2022-12-27T15:47:51.023Z,82.60
2022-12-27T15:50:48.065Z,82.90
2022-12-27T15:53:36.694Z,82.20
2022-12-27T15:56:27.645Z,82.00
2022-12-27T15:59:35.817Z,83.60
2022-12-27T16:02:30.818Z,84.90
2022-12-27T16:05:19.805Z,84.20
2022-12-27T16:08:08.903Z,85.40
2022-12-27T16:10:55.597Z,85.20
2022-12-27T16:13:48.511Z,86.60
2022-12-27T16:16:37.620Z,87.00
2022-12-27T16:19:33.108Z,87.40
2022-12-27T16:22:31.134Z,86.50
2022-12-27T16:25:35.518Z,87.20
2022-12-27T16:28:26.166Z,86.80
2022-12-27T16:31:12.503Z,88.20
2022-12-27T16:34:20.864Z,88.60
2022-12-27T16:37:20.181Z,89.10
2022-12-27T16:40:11.655Z,88.30
2022-12-27T16:42:57.700Z,88.20
2022-12-27T16:45:52.049Z,88.70
2022-12-27T16:48:37.853Z,88.40
2022-12-27T16:51:23.920Z,89.50
2022-12-27T16:54:29.765Z,90.20
2022-12-27T16:57:22.063Z,90.60
2022-12-27T17:00:11.377Z,90.80
2022-12-27T17:03:20.678Z,91.10
2022-12-27T17:06:35.342Z,91.00
2022-12-27T17:09:21.406Z,90.70
2022-12-27T17:12:13.862Z,90.30
2022-12-27T17:15:02.478Z,90.70
2022-12-27T17:17:52.582Z,91.10
2022-12-27T17:20:38.859Z,91.10
2022-12-27T17:23:24.635Z,91.40
2022-12-27T17:26:16.769Z,91.30
2022-12-27T17:29:02.844Z,91.40
2022-12-27T17:31:48.998Z,91.60
2022-12-27T17:34:38.032Z,91.80
2022-12-27T17:37:42.285Z,92.30
2022-12-27T17:40:43.919Z,92.20
2022-12-27T17:43:48.282Z,91.90
2022-12-27T17:47:00.314Z,91.70
2022-12-27T17:49:46.599Z,91.30
2022-12-27T17:52:51.162Z,91.00
2022-12-27T17:55:55.599Z,91.10
2022-12-27T17:58:41.452Z,91.80
2022-12-27T18:01:28.928Z,92.20
2022-12-27T18:04:18.511Z,92.60
2022-12-27T18:07:06.074Z,92.40
2022-12-27T18:09:55.244Z,92.60
2022-12-27T18:12:42.080Z,92.30
2022-12-27T18:15:29.254Z,92.40
2022-12-27T18:18:29.211Z,92.60
2022-12-27T18:21:25.196Z,92.40
2022-12-27T18:24:23.454Z,92.50
2022-12-27T18:27:17.375Z,92.60
2022-12-27T18:30:03.527Z,92.30
2022-12-27T18:32:49.441Z,92.30
2022-12-27T18:35:35.305Z,92.10
2022-12-27T18:38:34.436Z,92.20
2022-12-27T18:41:21.437Z,92.50
2022-12-27T18:44:12.380Z,92.70
2022-12-27T18:47:00.228Z,93.00
2022-12-27T18:49:46.156Z,93.40
2022-12-27T18:52:34.725Z,93.70
2022-12-27T18:55:23.644Z,93.60
2022-12-27T18:58:20.171Z,93.10
2022-12-27T19:01:19.121Z,93.50
2022-12-27T19:04:14.456Z,93.80
2022-12-27T19:07:15.738Z,93.80
2022-12-27T19:10:02.175Z,93.90
2022-12-27T19:12:48.132Z,93.80
2022-12-27T19:15:40.144Z,94.00
2022-12-27T19:18:37.024Z,93.90
2022-12-27T19:21:33.800Z,93.70
2022-12-27T19:24:29.361Z,93.90
2022-12-27T19:27:21.929Z,93.60
2022-12-27T19:30:27.851Z,93.60
2022-12-27T19:33:13.725Z,93.60
2022-12-27T19:36:00.401Z,93.60
2022-12-27T19:38:48.143Z,93.50
2022-12-27T19:41:34.821Z,93.40
2022-12-27T19:44:21.119Z,93.90
2022-12-27T19:47:09.202Z,94.00
2022-12-27T19:49:55.170Z,94.00
2022-12-27T19:52:41.310Z,94.20
2022-12-27T19:55:27.803Z,94.10
2022-12-27T19:58:20.633Z,94.40
2022-12-27T20:01:06.972Z,94.50
2022-12-27T20:03:53.244Z,94.90
2022-12-27T20:06:39.563Z,94.90
2022-12-27T20:09:26.349Z,94.10
2022-12-27T20:12:12.482Z,94.00
2022-12-27T20:14:58.444Z,93.90
2022-12-27T20:17:45.204Z,94.30
2022-12-27T20:20:31.716Z,94.10
2022-12-27T20:23:18.323Z,94.40
2022-12-27T20:26:04.280Z,94.60
2022-12-27T20:28:50.835Z,94.60
2022-12-27T20:31:44.133Z,94.80
2022-12-27T20:34:30.938Z,94.80
2022-12-27T20:37:22.632Z,94.60
2022-12-27T20:40:11.271Z,94.50
2022-12-27T20:42:57.222Z,94.80
2022-12-27T20:45:43.223Z,95.00
2022-12-27T20:48:29.699Z,94.60
2022-12-27T20:51:17.011Z,94.20
2022-12-27T20:54:02.941Z,94.20
2022-12-27T20:56:48.779Z,94.20
2022-12-27T20:59:34.793Z,94.10
2022-12-27T21:02:21.058Z,94.40
2022-12-27T21:05:07.941Z,95.10
2022-12-27T21:07:53.673Z,95.30
2022-12-27T21:10:39.618Z,95.00
2022-12-27T21:13:25.710Z,94.70
2022-12-27T21:16:12.774Z,94.60
2022-12-27T21:18:58.803Z,94.80
2022-12-27T21:21:44.965Z,95.30
2022-12-27T21:24:30.875Z,95.20
2022-12-27T21:27:16.995Z,95.40
2022-12-27T21:30:03.945Z,95.50
2022-12-27T21:32:49.907Z,95.00
2022-12-27T21:35:36.050Z,95.10
2022-12-27T21:38:21.966Z,94.80
2022-12-27T21:41:10.810Z,95.10
2022-12-27T21:43:56.450Z,95.10
2022-12-27T21:46:42.722Z,95.20
2022-12-27T21:49:28.360Z,95.20
2022-12-27T21:52:14.498Z,95.10
2022-12-27T21:55:00.521Z,95.00
2022-12-27T21:57:46.963Z,95.30
2022-12-27T22:00:33.005Z,95.20
2022-12-27T22:03:19.040Z,95.40
2022-12-27T22:06:12.098Z,95.30
2022-12-27T22:08:59.036Z,95.40
2022-12-27T22:11:45.003Z,95.60
2022-12-27T22:14:36.646Z,95.50
2022-12-27T22:17:22.780Z,95.60
2022-12-27T22:20:09.881Z,95.40
2022-12-27T22:22:55.767Z,95.10
2022-12-27T22:25:42.074Z,95.20
2022-12-27T22:28:28.442Z,95.60
2022-12-27T22:31:15.908Z,96.10
2022-12-27T22:34:03.019Z,96.10
2022-12-27T22:36:52.484Z,96.10
2022-12-27T22:39:38.252Z,95.90
2022-12-27T22:42:24.266Z,95.80
2022-12-27T22:45:10.879Z,95.50
2022-12-27T22:47:57.201Z,95.00
2022-12-27T22:50:43.303Z,94.70
2022-12-27T22:53:29.277Z,95.00
2022-12-27T22:56:19.934Z,95.20
2022-12-27T22:59:07.029Z,95.10
2022-12-27T23:01:53.016Z,95.60
2022-12-27T23:04:38.989Z,95.50
2022-12-27T23:08:06.057Z,95.50
2022-12-27T23:10:31.020Z,95.30
2022-12-27T23:13:17.250Z,95.30
2022-12-27T23:16:03.617Z,95.50
2022-12-27T23:18:49.520Z,95.70
2022-12-27T23:21:35.492Z,96.00
2022-12-27T23:24:21.575Z,95.90
2022-12-27T23:27:07.652Z,95.90
2022-12-27T23:29:55.128Z,95.60
2022-12-27T23:32:40.997Z,95.50
2022-12-27T23:35:26.890Z,95.60
2022-12-27T23:38:12.997Z,95.50
2022-12-27T23:41:00.192Z,95.60
2022-12-27T23:43:55.406Z,95.50
2022-12-27T23:46:42.225Z,95.50
2022-12-27T23:49:28.037Z,96.00
2022-12-27T23:52:14.030Z,95.60
2022-12-27T23:55:00.013Z,95.50
2022-12-27T23:57:46.101Z,95.30
